Etusivu
METAR-TAF:

METAR-TAF

Lentoasemat :

Cazaux, Ranska

Leveyspiiri: 44-32N, Pituuspiiri: 001-08W, korkeus merenpinnasta: 25 m

Tämänhetkinen sää

Tämä raportti tehtiin 32 minuuttia sitten, kello 19.30 UTC
tyyntä
Lämpötila 25°C
Kosteus 50%
Ilmanpaine 1016 hPa
Näkyvyys 10 km tai enemmän
ei pilviä alle 1500 m:ssä eikä cumulonimbus-pilviä

METAR: LFBC 231930Z AUTO 00000KT CAVOK 25/14 Q1016

Aika: 22:02 (20:02 UTC)

Sääennuste

Tämä raportti tehtiin 12 tuntia ja 2 minuuttia sitten, kello 08.00 UTC
Ennuste voimassa 23. päivästä klo 09 UTC - 24. päivään klo 09 UTC
Tuuli 5 kn etelästä/kaakosta
Näkyvyys 10 km tai enemmän
ei pilviä alle 1500 m:ssä eikä cumulonimbus-pilviä
Todennäköisyys 40% :
Ajoittain
23. päivästä klo 15 UTC - 23. päivään klo 18 UTC
Tuuli 10 kn luoteesta

TAF: LFBC 230800Z 2309/2409 16005KT CAVOK PROB40 TEMPO 2315/2318 32010KT

Säähavainnot ja -ennusteet yli 4000 lentoasemalta (METAR- ja TAF-raportit).

Käytössä olevat sääasemat on merkitty karttaan keltaisilla ja punaisilla pisteillä.

Aseta hiiri pisteen päälle nähdäksesi sääaseman nimen.

Klikkaa sitten nähdäksesi säähavainnot ja -ennusteet.

Kartan vaihtaminen: klikkaa mustalla rastilla varustettuja vihreitä pisteitä, niin voit zoomata sisään; viivalla varustettua vihreää pistettä, niin voit zoomata ulos tai vihreitä nuolia, niin pääset viereisille kartoille.


METAR-TAF: